createdAt,value
2024-03-27T00:02:00.836Z,72.20
2024-03-27T00:07:03.741Z,72.26
2024-03-27T00:12:07.194Z,72.41
2024-03-27T00:17:10.112Z,72.66
2024-03-27T00:22:12.960Z,72.77
2024-03-27T00:27:15.768Z,72.80
2024-03-27T00:32:18.885Z,72.83
2024-03-27T00:37:21.905Z,72.85
2024-03-27T00:42:25.403Z,73.13
2024-03-27T00:47:28.306Z,73.34
2024-03-27T00:52:31.210Z,73.44
2024-03-27T00:57:34.115Z,73.56
2024-03-27T01:02:37.018Z,73.71
2024-03-27T01:07:40.330Z,73.89
2024-03-27T01:12:43.240Z,73.98
2024-03-27T01:17:47.570Z,74.02
2024-03-27T01:22:50.579Z,74.01
2024-03-27T01:27:53.587Z,74.27
2024-03-27T01:32:58.342Z,74.33
2024-03-27T01:38:01.233Z,74.39
2024-03-27T01:43:04.455Z,74.30
2024-03-27T01:48:08.808Z,74.31
2024-03-27T01:53:14.747Z,74.56
2024-03-27T01:58:18.178Z,75.05
2024-03-27T02:03:21.083Z,75.00
2024-03-27T02:08:24.090Z,74.88
2024-03-27T02:13:27.000Z,74.84
2024-03-27T02:18:29.911Z,75.04
2024-03-27T02:23:40.787Z,74.94
2024-03-27T02:28:46.869Z,74.77
2024-03-27T02:33:49.771Z,74.98
2024-03-27T02:38:52.778Z,75.31
2024-03-27T02:43:55.985Z,75.63
2024-03-27T02:48:58.997Z,76.01
2024-03-27T02:54:01.902Z,75.32
2024-03-27T02:59:05.315Z,75.31
2024-03-27T03:04:08.226Z,76.37
2024-03-27T03:09:11.025Z,76.56
2024-03-27T03:14:13.830Z,77.16
2024-03-27T03:19:17.140Z,76.42
2024-03-27T03:24:19.941Z,76.37
2024-03-27T03:29:22.845Z,76.42
2024-03-27T03:34:25.851Z,76.18
2024-03-27T03:39:28.761Z,76.58
2024-03-27T03:44:31.664Z,77.01
2024-03-27T03:49:34.661Z,77.55
2024-03-27T03:54:37.678Z,76.92
2024-03-27T03:59:40.790Z,76.96
2024-03-27T04:04:43.687Z,77.17
2024-03-27T04:09:46.692Z,77.28
2024-03-27T04:14:53.090Z,77.34
2024-03-27T04:20:00.348Z,77.21
2024-03-27T04:25:04.812Z,77.10
2024-03-27T04:30:08.838Z,77.27
2024-03-27T04:35:11.770Z,77.07
2024-03-27T04:40:14.669Z,76.90
2024-03-27T04:45:17.579Z,76.60
2024-03-27T04:50:20.483Z,76.23
2024-03-27T04:55:23.479Z,75.93
2024-03-27T05:00:26.691Z,75.63
2024-03-27T05:05:29.491Z,75.32
2024-03-27T05:10:32.501Z,75.02
2024-03-27T05:15:35.310Z,74.54
2024-03-27T05:20:38.175Z,73.97
2024-03-27T05:25:41.113Z,73.13
2024-03-27T05:30:44.013Z,72.68
2024-03-27T05:35:46.916Z,72.41
2024-03-27T05:40:49.824Z,72.18
2024-03-27T05:45:53.685Z,71.99
2024-03-27T05:50:57.677Z,71.54
2024-03-27T05:56:00.895Z,70.99
2024-03-27T06:01:04.206Z,70.03
2024-03-27T06:06:07.418Z,68.87
2024-03-27T06:11:10.528Z,67.64
2024-03-27T06:16:13.742Z,67.31
2024-03-27T06:21:18.476Z,66.58
2024-03-27T06:26:22.826Z,62.47
2024-03-27T06:31:27.063Z,59.79
2024-03-27T06:36:30.072Z,55.43
2024-03-27T06:41:35.938Z,53.38
2024-03-27T06:46:39.163Z,51.13
2024-03-27T06:51:42.180Z,49.58
2024-03-27T06:56:45.786Z,47.19
2024-03-27T07:01:49.117Z,44.86
2024-03-27T07:06:52.097Z,43.70
2024-03-27T07:11:55.313Z,43.64
2024-03-27T07:16:58.209Z,47.11
2024-03-27T07:22:01.480Z,50.93
2024-03-27T07:27:04.639Z,53.84
2024-03-27T07:32:08.463Z,55.86
2024-03-27T07:37:11.470Z,57.36
2024-03-27T07:42:14.328Z,58.48
2024-03-27T07:47:17.281Z,58.73
2024-03-27T07:52:20.180Z,58.62
2024-03-27T07:57:23.497Z,58.78
2024-03-27T08:02:26.601Z,58.57
2024-03-27T08:07:29.576Z,57.90
2024-03-27T08:12:32.646Z,57.69
2024-03-27T08:17:35.724Z,57.42
2024-03-27T08:22:40.847Z,57.81
2024-03-27T08:27:43.750Z,58.00
2024-03-27T08:32:46.688Z,57.24
2024-03-27T08:37:54.890Z,56.64
2024-03-27T08:43:03.717Z,57.15
2024-03-27T08:48:06.856Z,56.62
2024-03-27T08:53:09.682Z,56.21
2024-03-27T08:58:12.631Z,55.08
2024-03-27T09:03:15.589Z,53.01
2024-03-27T09:08:18.590Z,52.66
2024-03-27T09:13:21.699Z,52.25
2024-03-27T09:18:24.601Z,52.40
2024-03-27T09:23:30.909Z,52.09
2024-03-27T09:28:33.790Z,51.73
2024-03-27T09:33:36.825Z,51.33
2024-03-27T09:38:39.807Z,51.19
2024-03-27T09:43:45.448Z,51.37
2024-03-27T09:48:51.147Z,51.02
2024-03-27T09:53:54.049Z,50.76
2024-03-27T09:58:58.701Z,49.85
2024-03-27T10:04:01.812Z,49.49
2024-03-27T10:09:08.034Z,48.67
2024-03-27T10:14:13.656Z,48.76
2024-03-27T10:19:16.564Z,48.18
2024-03-27T10:24:19.891Z,47.35
2024-03-27T10:29:22.780Z,47.97
2024-03-27T10:34:25.632Z,47.58
2024-03-27T10:39:33.196Z,46.94
2024-03-27T10:44:37.238Z,46.55
2024-03-27T10:49:42.157Z,46.03
2024-03-27T10:54:46.669Z,46.63
2024-03-27T10:59:55.778Z,47.43
2024-03-27T11:05:02.894Z,47.31
2024-03-27T11:10:06.467Z,47.21
2024-03-27T11:15:11.453Z,46.79
2024-03-27T11:20:15.596Z,45.23
2024-03-27T11:25:23.458Z,45.16
2024-03-27T11:30:28.546Z,45.81
2024-03-27T11:35:32.377Z,44.86
2024-03-27T11:40:35.735Z,44.71
2024-03-27T11:45:39.058Z,45.23
2024-03-27T11:50:43.032Z,44.01
2024-03-27T11:55:54.095Z,44.24
2024-03-27T12:01:00.426Z,43.96
2024-03-27T12:06:05.455Z,44.16
2024-03-27T12:11:11.716Z,44.07
2024-03-27T12:16:15.121Z,44.06
2024-03-27T12:21:17.992Z,43.41
2024-03-27T12:26:23.852Z,42.65
2024-03-27T12:31:29.334Z,42.82
2024-03-27T12:36:34.366Z,42.73
2024-03-27T12:41:37.370Z,43.16
2024-03-27T12:46:40.277Z,42.68
2024-03-27T12:51:43.195Z,43.34
2024-03-27T12:56:46.264Z,43.38
2024-03-27T13:01:49.409Z,43.08
2024-03-27T13:06:52.341Z,42.84
2024-03-27T13:11:55.422Z,42.94
2024-03-27T13:16:58.624Z,41.76
2024-03-27T13:22:02.150Z,41.67
2024-03-27T13:27:05.970Z,42.55
2024-03-27T13:32:11.966Z,42.88
2024-03-27T13:37:15.928Z,42.98
2024-03-27T13:42:19.091Z,41.73
2024-03-27T13:47:22.105Z,42.15
2024-03-27T13:52:25.202Z,41.99
2024-03-27T13:57:28.318Z,41.83
2024-03-27T14:02:31.378Z,42.73
2024-03-27T14:07:35.139Z,42.39
2024-03-27T14:12:38.357Z,42.46
2024-03-27T14:17:41.681Z,42.93
2024-03-27T14:22:46.985Z,43.36
2024-03-27T14:27:51.715Z,43.42
2024-03-27T14:32:54.783Z,43.48
2024-03-27T14:37:57.791Z,43.51
2024-03-27T14:43:00.895Z,43.37
2024-03-27T14:48:04.645Z,43.66
2024-03-27T14:53:08.021Z,43.76
2024-03-27T14:58:10.944Z,44.00
2024-03-27T15:03:14.986Z,44.17
2024-03-27T15:08:21.153Z,44.57
2024-03-27T15:13:24.362Z,44.47
2024-03-27T15:18:27.680Z,44.84
2024-03-27T15:23:30.892Z,45.33
2024-03-27T15:28:34.224Z,45.75
2024-03-27T15:33:37.518Z,46.37
2024-03-27T15:38:40.330Z,46.70
2024-03-27T15:43:43.527Z,47.07
2024-03-27T15:48:46.637Z,47.47
2024-03-27T15:53:49.645Z,47.85
2024-03-27T15:58:52.960Z,48.03
2024-03-27T16:03:58.648Z,47.85
2024-03-27T16:09:05.012Z,47.79
2024-03-27T16:14:07.923Z,48.15
2024-03-27T16:19:10.824Z,48.60
2024-03-27T16:24:14.043Z,48.97
2024-03-27T16:29:16.936Z,49.45
2024-03-27T16:34:19.849Z,49.76
2024-03-27T16:39:25.848Z,50.02
2024-03-27T16:44:35.658Z,50.29
2024-03-27T16:49:38.927Z,50.60
2024-03-27T16:54:45.591Z,50.84
2024-03-27T16:59:48.596Z,51.16
2024-03-27T17:04:51.516Z,51.63
2024-03-27T17:09:55.569Z,51.89
2024-03-27T17:14:58.847Z,52.11
2024-03-27T17:20:01.980Z,52.26
2024-03-27T17:25:05.533Z,52.51
2024-03-27T17:30:09.027Z,52.75
2024-03-27T17:35:12.007Z,52.99
2024-03-27T17:40:15.421Z,53.30
2024-03-27T17:45:18.321Z,53.55
2024-03-27T17:50:21.242Z,53.88
2024-03-27T17:55:24.643Z,54.18
2024-03-27T18:00:28.502Z,54.45
2024-03-27T18:05:31.370Z,54.71
2024-03-27T18:10:34.493Z,55.04
2024-03-27T18:15:38.572Z,55.39
2024-03-27T18:20:42.869Z,55.79
2024-03-27T18:25:45.857Z,56.18
2024-03-27T18:30:58.062Z,56.42
2024-03-27T18:36:01.422Z,56.58
2024-03-27T18:41:04.519Z,56.80
2024-03-27T18:46:07.616Z,57.03
2024-03-27T18:51:10.534Z,57.28
2024-03-27T18:56:13.547Z,57.54
2024-03-27T19:01:16.542Z,57.74
2024-03-27T19:06:19.746Z,58.02
2024-03-27T19:11:27.986Z,58.17
2024-03-27T19:16:38.621Z,58.35
2024-03-27T19:21:41.479Z,58.51
2024-03-27T19:26:44.774Z,58.83
2024-03-27T19:31:47.882Z,59.13
2024-03-27T19:36:51.844Z,59.36
2024-03-27T19:41:55.029Z,59.54
2024-03-27T19:46:59.488Z,59.74
2024-03-27T19:52:14.442Z,60.07
2024-03-27T19:57:21.760Z,60.42
2024-03-27T20:02:24.981Z,60.60
2024-03-27T20:07:31.208Z,60.73
2024-03-27T20:12:35.284Z,60.95
2024-03-27T20:17:38.307Z,61.07
2024-03-27T20:22:41.404Z,61.18
2024-03-27T20:27:44.303Z,61.25
2024-03-27T20:32:47.204Z,61.25
2024-03-27T20:37:50.085Z,61.18
2024-03-27T20:42:53.017Z,61.19
2024-03-27T20:47:55.922Z,61.23
2024-03-27T20:52:59.075Z,61.27
2024-03-27T20:58:02.138Z,61.30
2024-03-27T21:03:06.052Z,61.48
2024-03-27T21:08:09.284Z,61.75
2024-03-27T21:13:12.177Z,61.96
2024-03-27T21:18:15.188Z,62.11
2024-03-27T21:23:18.208Z,62.21
2024-03-27T21:28:21.342Z,62.31
2024-03-27T21:33:24.630Z,62.20
2024-03-27T21:38:27.929Z,62.25
2024-03-27T21:43:31.472Z,62.28
2024-03-27T21:48:34.998Z,62.37
2024-03-27T21:53:37.871Z,62.40
2024-03-27T21:58:40.625Z,62.57
2024-03-27T22:03:43.578Z,62.57
2024-03-27T22:08:46.480Z,62.76
2024-03-27T22:13:50.114Z,62.85
2024-03-27T22:18:53.148Z,62.81
2024-03-27T22:23:56.527Z,62.57
2024-03-27T22:28:59.537Z,62.28
2024-03-27T22:34:02.473Z,61.98
2024-03-27T22:39:05.343Z,61.73
2024-03-27T22:44:08.250Z,61.62
2024-03-27T22:49:11.180Z,61.59
2024-03-27T22:54:15.493Z,61.68
2024-03-27T22:59:18.408Z,61.85
2024-03-27T23:04:21.647Z,62.00
2024-03-27T23:09:24.518Z,62.15
2024-03-27T23:14:27.411Z,62.26
2024-03-27T23:19:30.317Z,62.34
2024-03-27T23:24:33.321Z,62.43
2024-03-27T23:29:36.128Z,62.65
2024-03-27T23:34:39.028Z,62.83
2024-03-27T23:39:41.830Z,63.09
2024-03-27T23:44:44.732Z,63.30
2024-03-27T23:49:47.640Z,63.43
2024-03-27T23:54:50.540Z,63.46
2024-03-27T23:59:54.679Z,63.59
